createdAt,value
2022-11-12T00:01:33.472Z,22.40
2022-11-12T00:04:19.954Z,22.30
2022-11-12T00:07:07.749Z,22.30
2022-11-12T00:09:54.110Z,22.30
2022-11-12T00:12:40.659Z,22.30
2022-11-12T00:15:27.259Z,22.30
2022-11-12T00:18:13.326Z,22.30
2022-11-12T00:20:59.831Z,22.30
2022-11-12T00:23:47.686Z,22.30
2022-11-12T00:26:33.974Z,22.30
2022-11-12T00:29:20.369Z,22.30
2022-11-12T00:32:06.591Z,22.30
2022-11-12T00:34:52.793Z,22.30
2022-11-12T00:37:39.229Z,22.30
2022-11-12T00:40:26.915Z,22.20
2022-11-12T00:43:13.272Z,22.20
2022-11-12T00:45:59.704Z,22.20
2022-11-12T00:48:45.882Z,22.20
2022-11-12T00:51:32.173Z,22.20
2022-11-12T00:54:18.796Z,22.20
2022-11-12T00:57:06.586Z,22.20
2022-11-12T00:59:52.824Z,22.20
2022-11-12T01:02:44.207Z,22.20
2022-11-12T01:05:33.817Z,22.10
2022-11-12T01:08:19.940Z,22.10
2022-11-12T01:11:07.679Z,22.10
2022-11-12T01:13:56.559Z,22.10
2022-11-12T01:16:43.302Z,22.10
2022-11-12T01:19:29.599Z,22.10
2022-11-12T01:22:15.900Z,22.10
2022-11-12T01:25:02.323Z,22.10
2022-11-12T01:27:48.677Z,22.10
2022-11-12T01:30:36.191Z,22.00
2022-11-12T01:33:22.633Z,22.00
2022-11-12T01:36:09.699Z,22.00
2022-11-12T01:38:56.454Z,22.00
2022-11-12T01:41:42.817Z,22.00
2022-11-12T01:44:31.798Z,22.00
2022-11-12T01:47:20.946Z,22.00
2022-11-12T01:50:13.137Z,22.00
2022-11-12T01:53:00.846Z,22.00
2022-11-12T01:55:47.074Z,22.00
2022-11-12T01:58:33.402Z,22.00
2022-11-12T02:01:19.772Z,22.00
2022-11-12T02:04:07.362Z,21.90
2022-11-12T02:06:53.931Z,21.90
2022-11-12T02:09:40.245Z,21.90
2022-11-12T02:12:44.170Z,21.90
2022-11-12T02:15:30.592Z,21.90
2022-11-12T02:18:16.886Z,21.90
2022-11-12T02:21:06.903Z,21.90
2022-11-12T02:24:01.638Z,21.90
2022-11-12T02:26:48.676Z,21.90
2022-11-12T02:29:34.873Z,21.90
2022-11-12T02:32:21.110Z,21.90
2022-11-12T02:35:08.641Z,21.90
2022-11-12T02:37:54.922Z,21.90
2022-11-12T02:40:42.553Z,21.90
2022-11-12T02:43:28.972Z,21.90
2022-11-12T02:46:15.293Z,21.90
2022-11-12T02:49:01.683Z,21.90
2022-11-12T02:51:48.039Z,21.90
2022-11-12T02:54:34.509Z,21.90
2022-11-12T02:57:22.074Z,21.90
2022-11-12T03:00:10.842Z,21.90
2022-11-12T03:03:00.093Z,21.90
2022-11-12T03:05:46.615Z,21.90
2022-11-12T03:08:32.690Z,21.90
2022-11-12T03:11:19.191Z,21.90
2022-11-12T03:14:06.969Z,21.90
2022-11-12T03:16:53.252Z,21.90
2022-11-12T03:19:39.694Z,21.90
2022-11-12T03:22:26.020Z,21.90
2022-11-12T03:25:12.199Z,21.90
2022-11-12T03:27:59.312Z,21.90
2022-11-12T03:30:46.997Z,21.90
2022-11-12T03:33:33.277Z,21.90
2022-11-12T03:36:19.729Z,21.90
2022-11-12T03:39:06.281Z,21.90
2022-11-12T03:41:52.733Z,21.80
2022-11-12T03:44:39.023Z,21.90
2022-11-12T03:47:26.910Z,21.80
2022-11-12T03:50:13.541Z,21.80
2022-11-12T03:53:00.744Z,21.80
2022-11-12T03:55:47.295Z,21.80
2022-11-12T03:58:33.707Z,21.80
2022-11-12T04:01:20.145Z,21.80
2022-11-12T04:04:07.798Z,21.80
2022-11-12T04:07:11.828Z,21.80
2022-11-12T04:09:58.115Z,21.80
2022-11-12T04:13:10.497Z,21.80
2022-11-12T04:16:15.905Z,21.80
2022-11-12T04:19:20.517Z,21.80
2022-11-12T04:22:09.005Z,21.80
2022-11-12T04:25:12.622Z,21.80
2022-11-12T04:27:58.952Z,21.80
2022-11-12T04:30:44.333Z,21.80
2022-11-12T04:33:30.771Z,21.80
2022-11-12T04:36:17.037Z,21.80
2022-11-12T04:39:04.707Z,21.80
2022-11-12T04:42:08.646Z,21.80
2022-11-12T04:45:01.104Z,21.80
2022-11-12T04:47:47.321Z,21.70
2022-11-12T04:50:33.673Z,21.70
2022-11-12T04:53:20.159Z,21.70
2022-11-12T04:56:09.015Z,21.70
2022-11-12T04:58:55.104Z,21.70
2022-11-12T05:01:41.318Z,21.70
2022-11-12T05:04:28.812Z,21.70
2022-11-12T05:07:15.439Z,21.70
2022-11-12T05:10:01.753Z,21.70
2022-11-12T05:12:49.330Z,21.70
2022-11-12T05:15:35.669Z,21.70
2022-11-12T05:18:22.352Z,21.70
2022-11-12T05:21:22.736Z,21.70
2022-11-12T05:24:17.833Z,21.70
2022-11-12T05:27:16.703Z,21.60
2022-11-12T05:30:04.689Z,21.60
2022-11-12T05:32:51.002Z,21.60
2022-11-12T05:35:37.417Z,21.60
2022-11-12T05:38:23.861Z,21.60
2022-11-12T05:41:10.231Z,21.60
2022-11-12T05:43:56.538Z,21.60
2022-11-12T05:46:44.375Z,21.60
2022-11-12T05:49:30.946Z,21.60
2022-11-12T05:52:16.936Z,21.60
2022-11-12T05:55:03.381Z,21.60
2022-11-12T05:57:49.779Z,21.60
2022-11-12T06:00:38.991Z,21.60
2022-11-12T06:03:26.433Z,21.60
2022-11-12T06:06:12.850Z,21.60
2022-11-12T06:08:59.111Z,21.50
2022-11-12T06:11:45.652Z,21.50
2022-11-12T06:14:32.099Z,21.50
2022-11-12T06:17:18.695Z,21.50
2022-11-12T06:20:07.351Z,21.50
2022-11-12T06:22:53.939Z,21.50
2022-11-12T06:25:40.169Z,21.50
2022-11-12T06:28:26.860Z,21.50
2022-11-12T06:31:13.675Z,21.50
2022-11-12T06:33:59.982Z,21.50
2022-11-12T06:36:48.678Z,21.50
2022-11-12T06:39:34.880Z,21.50
2022-11-12T06:42:21.210Z,21.50
2022-11-12T06:45:08.607Z,21.50
2022-11-12T06:47:58.667Z,21.40
2022-11-12T06:50:44.813Z,21.40
2022-11-12T06:53:32.442Z,21.40
2022-11-12T06:56:18.855Z,21.40
2022-11-12T06:59:05.311Z,21.40
2022-11-12T07:01:52.277Z,21.40
2022-11-12T07:04:38.429Z,21.40
2022-11-12T07:07:24.916Z,21.40
2022-11-12T07:10:12.588Z,21.40
2022-11-12T07:12:59.058Z,21.40
2022-11-12T07:15:45.338Z,21.40
2022-11-12T07:18:31.810Z,21.40
2022-11-12T07:21:19.266Z,21.40
2022-11-12T07:24:06.208Z,21.40
2022-11-12T07:26:53.984Z,21.40
2022-11-12T07:29:48.136Z,21.40
2022-11-12T07:32:40.099Z,21.40
2022-11-12T07:35:29.443Z,21.40
2022-11-12T07:38:15.835Z,21.40
2022-11-12T07:41:02.613Z,21.40
2022-11-12T07:43:51.825Z,21.40
2022-11-12T07:46:37.918Z,21.40
2022-11-12T07:49:24.201Z,21.40
2022-11-12T07:52:10.640Z,21.40
2022-11-12T07:54:56.934Z,21.40
2022-11-12T07:57:43.402Z,21.30
2022-11-12T08:00:31.343Z,21.40
2022-11-12T08:03:17.485Z,21.40
2022-11-12T08:06:04.047Z,21.30
2022-11-12T08:08:52.698Z,21.40
2022-11-12T08:11:38.719Z,21.40
2022-11-12T08:14:25.578Z,21.40
2022-11-12T08:17:13.331Z,21.40
2022-11-12T08:19:59.697Z,21.40
2022-11-12T08:22:49.219Z,21.40
2022-11-12T08:25:35.699Z,21.40
2022-11-12T08:28:22.052Z,21.40
2022-11-12T08:31:10.007Z,21.40
2022-11-12T08:33:57.783Z,21.40
2022-11-12T08:36:44.301Z,21.40
2022-11-12T08:39:30.657Z,21.40
2022-11-12T08:42:16.914Z,21.40
2022-11-12T08:45:03.387Z,21.40
2022-11-12T08:47:49.716Z,21.40
2022-11-12T08:50:37.657Z,21.50
2022-11-12T08:53:24.549Z,21.50
2022-11-12T08:56:10.837Z,21.50
2022-11-12T08:58:57.349Z,21.50
2022-11-12T09:01:44.071Z,21.50
2022-11-12T09:04:30.229Z,21.60
2022-11-12T09:07:48.032Z,21.60
2022-11-12T09:10:24.542Z,21.60
2022-11-12T09:13:10.687Z,21.60
2022-11-12T09:16:01.260Z,21.70
2022-11-12T09:18:48.196Z,21.70
2022-11-12T09:21:34.917Z,21.80
2022-11-12T09:24:22.345Z,21.80
2022-11-12T09:27:08.766Z,21.90
2022-11-12T09:29:55.215Z,21.90
2022-11-12T09:32:41.666Z,22.00
2022-11-12T09:35:28.007Z,22.10
2022-11-12T09:38:15.237Z,22.10
2022-11-12T09:41:20.176Z,22.20
2022-11-12T09:44:09.898Z,22.30
2022-11-12T09:46:58.199Z,22.30
2022-11-12T09:49:47.817Z,22.40
2022-11-12T09:52:34.075Z,22.40
2022-11-12T09:55:23.579Z,22.50
2022-11-12T09:58:13.241Z,22.60
2022-11-12T10:01:01.043Z,22.60
2022-11-12T10:03:52.505Z,22.60
2022-11-12T10:06:41.366Z,22.60
2022-11-12T10:09:29.731Z,22.60
2022-11-12T10:12:35.053Z,22.60
2022-11-12T10:15:55.856Z,22.70
2022-11-12T10:18:51.886Z,22.70
2022-11-12T10:21:42.164Z,22.70
2022-11-12T10:24:30.446Z,22.80
2022-11-12T10:27:17.781Z,22.80
2022-11-12T10:30:05.460Z,22.80
2022-11-12T10:32:53.533Z,22.90
2022-11-12T10:35:39.665Z,22.90
2022-11-12T10:38:27.704Z,23.00
2022-11-12T10:41:22.679Z,23.00
2022-11-12T10:44:14.624Z,23.00
2022-11-12T10:47:25.112Z,23.10
2022-11-12T10:50:21.480Z,23.20
2022-11-12T10:53:08.768Z,23.20
2022-11-12T10:55:59.277Z,23.20
2022-11-12T10:58:45.469Z,23.30
2022-11-12T11:01:35.685Z,23.40
2022-11-12T11:04:30.153Z,23.40
2022-11-12T11:07:21.538Z,23.50
2022-11-12T11:10:22.652Z,23.60
2022-11-12T11:13:21.392Z,23.60
2022-11-12T11:16:08.920Z,23.70
2022-11-12T11:18:56.759Z,23.80
2022-11-12T11:21:58.984Z,23.80
2022-11-12T11:24:51.344Z,23.80
2022-11-12T11:27:41.609Z,23.90
2022-11-12T11:30:28.163Z,24.00
2022-11-12T11:33:26.670Z,23.90
2022-11-12T11:36:19.778Z,24.00
2022-11-12T11:39:10.625Z,24.00
2022-11-12T11:42:06.174Z,24.10
2022-11-12T11:44:55.407Z,24.10
2022-11-12T11:48:00.515Z,24.20
2022-11-12T11:50:51.413Z,24.20
2022-11-12T11:53:40.373Z,24.30
2022-11-12T11:56:27.358Z,24.30
2022-11-12T11:59:23.961Z,24.30
2022-11-12T12:02:34.958Z,24.40
2022-11-12T12:05:28.049Z,24.40
2022-11-12T12:08:16.983Z,24.50
2022-11-12T12:11:08.942Z,24.70
2022-11-12T12:14:03.297Z,24.70
2022-11-12T12:16:56.671Z,24.80
2022-11-12T12:19:50.657Z,24.90
2022-11-12T12:22:38.861Z,25.00
2022-11-12T12:25:26.947Z,25.00
2022-11-12T12:28:16.408Z,25.00
2022-11-12T12:31:07.876Z,25.10
2022-11-12T12:33:57.049Z,25.10
2022-11-12T12:36:43.543Z,25.10
2022-11-12T12:39:36.322Z,25.10
2022-11-12T12:42:26.468Z,25.00
2022-11-12T12:45:36.130Z,24.90
2022-11-12T12:48:23.973Z,24.90
2022-11-12T12:51:11.855Z,24.70
2022-11-12T12:53:59.082Z,24.70
2022-11-12T12:56:49.070Z,24.60
2022-11-12T12:59:35.211Z,24.50
2022-11-12T13:02:22.488Z,24.40
2022-11-12T13:05:26.187Z,24.30
2022-11-12T13:08:14.885Z,24.30
2022-11-12T13:11:01.524Z,24.30
2022-11-12T13:13:48.033Z,24.20
2022-11-12T13:16:57.245Z,24.10
2022-11-12T13:19:46.450Z,24.10
2022-11-12T13:22:51.904Z,24.10
2022-11-12T13:25:39.170Z,24.00
2022-11-12T13:28:26.136Z,23.90
2022-11-12T13:31:27.194Z,23.80
2022-11-12T13:34:14.812Z,23.70
2022-11-12T13:37:02.592Z,23.70
2022-11-12T13:39:48.910Z,23.60
2022-11-12T13:42:52.131Z,23.60
2022-11-12T13:45:41.898Z,23.60
2022-11-12T13:48:29.896Z,23.70
2022-11-12T13:51:18.154Z,23.60
2022-11-12T13:54:04.992Z,23.70
2022-11-12T13:56:51.173Z,23.60
2022-11-12T13:59:38.939Z,23.70
2022-11-12T14:02:26.839Z,23.80
2022-11-12T14:05:19.454Z,23.70
2022-11-12T14:08:18.934Z,23.80
2022-11-12T14:11:31.128Z,23.80
2022-11-12T14:14:24.514Z,23.80
2022-11-12T14:17:22.496Z,23.90
2022-11-12T14:20:30.420Z,23.90
2022-11-12T14:23:23.110Z,23.80
2022-11-12T14:26:11.403Z,23.80
2022-11-12T14:28:58.047Z,23.80
2022-11-12T14:31:44.279Z,23.80
2022-11-12T14:34:33.531Z,23.90
2022-11-12T14:37:39.910Z,23.90
2022-11-12T14:40:31.039Z,23.90
2022-11-12T14:43:32.005Z,23.70
2022-11-12T14:46:23.991Z,23.70
2022-11-12T14:49:15.926Z,23.70
2022-11-12T14:52:06.983Z,23.70
2022-11-12T14:54:55.239Z,23.70
2022-11-12T14:57:41.679Z,23.70
2022-11-12T15:00:42.349Z,23.70
2022-11-12T15:03:32.401Z,23.80
2022-11-12T15:06:21.598Z,23.80
2022-11-12T15:09:09.485Z,23.80
2022-11-12T15:11:55.605Z,23.70
2022-11-12T15:14:41.975Z,23.70
2022-11-12T15:17:31.787Z,23.70
2022-11-12T15:20:19.678Z,23.70
2022-11-12T15:23:05.811Z,23.80
2022-11-12T15:26:00.040Z,23.80
2022-11-12T15:28:59.241Z,23.80
2022-11-12T15:31:46.552Z,23.80
2022-11-12T15:34:46.510Z,23.70
2022-11-12T15:37:33.471Z,23.70
2022-11-12T15:40:20.622Z,23.70
2022-11-12T15:43:13.644Z,23.70
2022-11-12T15:45:59.773Z,23.70
2022-11-12T15:48:49.189Z,23.70
2022-11-12T15:51:37.511Z,23.70
2022-11-12T15:54:23.957Z,23.60
2022-11-12T15:57:11.471Z,23.30
2022-11-12T16:00:07.553Z,23.10
2022-11-12T16:02:56.843Z,22.80
2022-11-12T16:05:43.244Z,22.90
2022-11-12T16:08:29.419Z,22.90
2022-11-12T16:11:29.720Z,22.90
2022-11-12T16:14:15.897Z,23.00
2022-11-12T16:17:03.631Z,23.10
2022-11-12T16:19:50.022Z,23.00
2022-11-12T16:22:36.642Z,22.80
2022-11-12T16:25:23.021Z,22.50
2022-11-12T16:28:10.800Z,22.30
2022-11-12T16:30:57.075Z,22.00
2022-11-12T16:33:44.915Z,21.80
2022-11-12T16:36:31.283Z,21.60
2022-11-12T16:39:17.825Z,21.30
2022-11-12T16:42:04.615Z,21.00
2022-11-12T16:44:50.940Z,20.80
2022-11-12T16:47:37.850Z,21.00
2022-11-12T16:50:26.428Z,21.10
2022-11-12T16:53:12.529Z,21.30
2022-11-12T16:55:59.000Z,21.30
2022-11-12T16:58:45.587Z,21.40
2022-11-12T17:01:32.949Z,21.50
2022-11-12T17:04:19.535Z,21.60
2022-11-12T17:07:07.593Z,21.70
2022-11-12T17:09:53.716Z,21.70
2022-11-12T17:12:40.073Z,21.80
2022-11-12T17:15:26.707Z,21.90
2022-11-12T17:18:13.125Z,21.90
2022-11-12T17:21:11.202Z,22.00
2022-11-12T17:23:58.840Z,21.90
2022-11-12T17:26:45.181Z,22.00
2022-11-12T17:29:31.439Z,22.10
2022-11-12T17:32:17.731Z,22.00
2022-11-12T17:35:04.242Z,22.00
2022-11-12T17:37:51.197Z,22.10
2022-11-12T17:40:38.729Z,22.10
2022-11-12T17:43:25.396Z,22.10
2022-11-12T17:46:14.451Z,22.00
2022-11-12T17:49:00.674Z,22.00
2022-11-12T17:51:47.028Z,22.00
2022-11-12T17:54:34.402Z,22.10
2022-11-12T17:57:22.017Z,22.10
2022-11-12T18:00:09.600Z,22.00
2022-11-12T18:02:56.317Z,22.00
2022-11-12T18:05:42.975Z,22.00
2022-11-12T18:08:29.219Z,22.10
2022-11-12T18:11:15.827Z,22.10
2022-11-12T18:14:06.974Z,22.10
2022-11-12T18:16:53.397Z,22.20
2022-11-12T18:19:39.802Z,22.10
2022-11-12T18:22:26.287Z,22.20
2022-11-12T18:25:12.817Z,22.10
2022-11-12T18:27:59.266Z,22.20
2022-11-12T18:30:47.207Z,22.20
2022-11-12T18:33:35.906Z,22.20
2022-11-12T18:36:24.121Z,22.20
2022-11-12T18:39:10.442Z,22.10
2022-11-12T18:41:56.841Z,22.10
2022-11-12T18:44:43.182Z,22.10
2022-11-12T18:47:31.677Z,22.10
2022-11-12T18:50:18.104Z,22.20
2022-11-12T18:53:04.597Z,22.20
2022-11-12T18:55:51.043Z,22.20
2022-11-12T18:58:37.500Z,22.20
2022-11-12T19:01:24.661Z,22.20
2022-11-12T19:04:12.463Z,22.20
2022-11-12T19:06:58.734Z,22.20
2022-11-12T19:09:45.297Z,22.20
2022-11-12T19:12:31.591Z,22.20
2022-11-12T19:15:21.564Z,22.20
2022-11-12T19:18:10.381Z,22.20
2022-11-12T19:21:03.323Z,22.20
2022-11-12T19:23:53.738Z,22.30
2022-11-12T19:26:40.903Z,22.30
2022-11-12T19:29:27.108Z,22.30
2022-11-12T19:32:13.473Z,22.30
2022-11-12T19:34:59.893Z,22.30
2022-11-12T19:37:47.298Z,22.30
2022-11-12T19:40:33.747Z,22.40
2022-11-12T19:43:22.080Z,22.50
2022-11-12T19:46:08.435Z,22.50
2022-11-12T19:48:54.787Z,22.50
2022-11-12T19:51:41.249Z,22.60
2022-11-12T19:54:29.046Z,22.70
2022-11-12T19:57:15.405Z,22.70
2022-11-12T20:00:01.751Z,22.80
2022-11-12T20:02:48.113Z,22.90
2022-11-12T20:05:34.654Z,22.90
2022-11-12T20:08:24.754Z,23.00
2022-11-12T20:11:12.561Z,23.10
2022-11-12T20:13:59.001Z,23.20
2022-11-12T20:16:45.177Z,23.20
2022-11-12T20:19:31.619Z,23.30
2022-11-12T20:22:18.250Z,23.40
2022-11-12T20:25:04.823Z,23.40
2022-11-12T20:27:52.347Z,23.50
2022-11-12T20:30:38.509Z,23.50
2022-11-12T20:33:25.085Z,23.50
2022-11-12T20:36:12.748Z,23.60
2022-11-12T20:38:59.377Z,23.60
2022-11-12T20:41:45.604Z,23.60
2022-11-12T20:44:33.492Z,23.60
2022-11-12T20:47:19.926Z,23.70
2022-11-12T20:50:07.119Z,23.70
2022-11-12T20:52:53.455Z,23.70
2022-11-12T20:55:39.859Z,23.70
2022-11-12T20:58:27.900Z,23.80
2022-11-12T21:01:16.992Z,23.80
2022-11-12T21:04:03.449Z,23.80
2022-11-12T21:06:50.080Z,23.90
2022-11-12T21:09:36.343Z,23.90
2022-11-12T21:12:22.803Z,23.90
2022-11-12T21:15:09.785Z,24.00
2022-11-12T21:17:57.325Z,24.00
2022-11-12T21:20:44.019Z,24.10
2022-11-12T21:23:30.901Z,24.10
2022-11-12T21:26:18.295Z,24.20
2022-11-12T21:29:04.662Z,24.20
2022-11-12T21:31:51.157Z,24.30
2022-11-12T21:34:38.870Z,24.40
2022-11-12T21:37:25.367Z,24.50
2022-11-12T21:40:12.081Z,24.50
2022-11-12T21:42:58.318Z,24.60
2022-11-12T21:45:46.370Z,24.60
2022-11-12T21:48:32.682Z,24.70
2022-11-12T21:51:20.949Z,24.80
2022-11-12T21:54:07.870Z,24.90
2022-11-12T21:56:54.307Z,25.00
2022-11-12T21:59:40.583Z,25.00
2022-11-12T22:02:27.118Z,25.10
2022-11-12T22:05:15.110Z,25.20
2022-11-12T22:08:02.332Z,25.20
2022-11-12T22:10:48.978Z,25.30
2022-11-12T22:13:35.551Z,25.40
2022-11-12T22:16:22.314Z,25.40
2022-11-12T22:19:08.881Z,25.50
2022-11-12T22:21:55.328Z,25.60
2022-11-12T22:24:42.769Z,25.60
2022-11-12T22:27:31.346Z,25.70
2022-11-12T22:30:17.952Z,25.80
2022-11-12T22:33:04.291Z,25.90
2022-11-12T22:35:50.622Z,25.90
2022-11-12T22:38:37.190Z,26.00
2022-11-12T22:41:25.618Z,26.10
2022-11-12T22:44:11.717Z,26.20
2022-11-12T22:46:58.184Z,26.30
2022-11-12T22:49:44.576Z,26.30
2022-11-12T22:52:30.847Z,26.40
2022-11-12T22:55:17.326Z,26.50
2022-11-12T22:58:04.967Z,26.60
2022-11-12T23:00:51.286Z,26.60
2022-11-12T23:03:37.847Z,26.70
2022-11-12T23:06:24.355Z,26.80
2022-11-12T23:09:11.227Z,26.90
2022-11-12T23:11:57.465Z,27.00
2022-11-12T23:14:45.190Z,27.10
2022-11-12T23:17:31.558Z,27.20
2022-11-12T23:20:18.299Z,27.20
2022-11-12T23:23:04.766Z,27.30
2022-11-12T23:25:50.934Z,27.40
2022-11-12T23:28:37.389Z,27.50
2022-11-12T23:31:25.651Z,27.60
2022-11-12T23:34:12.763Z,27.60
2022-11-12T23:36:59.324Z,27.70
2022-11-12T23:39:45.669Z,27.80
2022-11-12T23:42:32.176Z,27.90
2022-11-12T23:45:18.523Z,28.00
2022-11-12T23:48:06.994Z,28.10
2022-11-12T23:51:00.274Z,28.20
2022-11-12T23:53:46.610Z,28.20
2022-11-12T23:56:32.880Z,28.40
2022-11-12T23:59:19.621Z,28.40
